« Back
NWS Peachtree City, Ga » Text Product » ATL Terminal Aerodrome Forecast


Printer-friendly Version
Current Version              Previous Versions:   1  2  3  4  5  6  7  8  9  

Terminal Aerodrome Forecast

181
FTUS42 KFFC 251947 AAA
TAFATL
TAF AMD
KATL 251947Z 2520/2624 19008KT P6SM SCT070
     FM260200 17004KT P6SM SCT150
     FM261400 22004KT P6SM SCT150
     FM261800 20007KT P6SM SCT060=

USA.gov is the U.S. government's official web portal to all federal, state and local government web resources and services.